Redcliffe, Australia

4:14 AM AEST on March 02, 2017 (GMT +1000)
North Lakes | | Change Station

Elev 65 ft 27.22 °S, 153.02 °E | Updated 0 second ago

Mostly Cloudy
Mostly Cloudy
72.5 °F
Feels Like 72.5 °F
N
3.5
Wind Variable Wind from SSE
Gusts 3.5 mph

Today
High -- | Low -- °F
--% Chance of Precip.
Yesterday
High -- | Low -- °F
Precip. -- in
Pressure 29.95 in
Visibility 6.2 miles
Clouds Few 3500 ft
Mostly Cloudy 14500 ft
Dew Point 71 °F
Humidity 94%
Rainfall 0.11 in
Snow Depth Not available.
5:40 AM 6:18 PM
Waxing Crescent, 12% visible
METAR YBBN 011800Z 20005KT 9999 FEW035 BKN145 23/21 Q1014 INTER 1830/2100 3000 SHRA BKN012
Pressure 29.95 in
Visibility 6.2 miles
Clouds Few 3500 ft
Mostly Cloudy 14500 ft
Dew Point 71 °F
Humidity 94%
Rainfall 0.11 in
Snow Depth Not available.
5:40 AM 6:18 PM
Waxing Crescent, 12% visible
METAR YBBN 011800Z 20005KT 9999 FEW035 BKN145 23/21 Q1014 INTER 1830/2100 3000 SHRA BKN012

Get Your Daily Forecast Email!

Thanks for signing up!

Be on the lookout for a verification email in your inbox.

You'll start receiving the daily forecast at 8 AM.

×

10-Day Weather Forecast

×

Almanac

Astronomy

Mar. 02, 2017 Rise Set
Actual Time
Civil Twilight
Nautical Twilight
Astronomical Twilight
Moon
Length of Visible Light
Length of Day
Tomorrow will be .
, % of the Moon is Illuminated

Today's Extremes

Country Highs Country Lows

Community

WunderPhotos

Upload Photos

1,962,540 photos uploaded!

WunderBlog® & News

Nearby

Air Quality

  Air Quality AQ Index Pollutant
Not available.

Snow Depth

Station Depth Elevation

Earthquake Activity

City Distance Mag. Time & Date
Minimum magnitude displayed is 2.5.

Coastal Water Temperatures

Place Temperature

Stations

Nearby Weather Stations

Station Location Temp. Windchill Dew Point Humidity Wind Precip. Elev Updated Type